sensor_id;sensor_type;location;lat;lon;timestamp;pressure;altitude;pressure_sealevel;temperature;humidity
62333;BME280;48624;49.812;8.562;2023-07-31T00:02:01;100442.19;;;18.58;68.32
62333;BME280;48624;49.812;8.562;2023-07-31T00:04:26;100443.63;;;18.70;67.49
62333;BME280;48624;49.812;8.562;2023-07-31T00:06:51;100433.56;;;18.72;67.18
62333;BME280;48624;49.812;8.562;2023-07-31T00:09:17;100434.69;;;18.88;66.29
62333;BME280;48624;49.812;8.562;2023-07-31T00:11:42;100437.13;;;18.81;68.07
62333;BME280;48624;49.812;8.562;2023-07-31T00:14:09;100439.47;;;18.76;67.68
62333;BME280;48624;49.812;8.562;2023-07-31T00:16:34;100438.19;;;18.62;67.43
62333;BME280;48624;49.812;8.562;2023-07-31T00:18:59;100432.09;;;18.78;67.81
62333;BME280;48624;49.812;8.562;2023-07-31T00:21:25;100431.22;;;18.69;67.58
62333;BME280;48624;49.812;8.562;2023-07-31T00:23:50;100426.88;;;18.77;67.60
62333;BME280;48624;49.812;8.562;2023-07-31T00:26:15;100421.31;;;18.70;67.63
62333;BME280;48624;49.812;8.562;2023-07-31T00:28:41;100427.41;;;18.54;67.65
62333;BME280;48624;49.812;8.562;2023-07-31T00:31:06;100424.56;;;18.82;67.08
62333;BME280;48624;49.812;8.562;2023-07-31T00:33:31;100427.19;;;18.74;66.62
62333;BME280;48624;49.812;8.562;2023-07-31T00:35:57;100424.66;;;18.72;66.54
62333;BME280;48624;49.812;8.562;2023-07-31T00:38:22;100423.88;;;18.80;67.14
62333;BME280;48624;49.812;8.562;2023-07-31T00:40:47;100417.31;;;18.74;67.77
62333;BME280;48624;49.812;8.562;2023-07-31T00:43:13;100416.38;;;18.83;66.80
62333;BME280;48624;49.812;8.562;2023-07-31T00:45:38;100418.19;;;18.83;66.46
62333;BME280;48624;49.812;8.562;2023-07-31T00:48:04;100405.16;;;18.88;66.27
62333;BME280;48624;49.812;8.562;2023-07-31T00:50:31;100408.13;;;18.85;66.79
62333;BME280;48624;49.812;8.562;2023-07-31T00:52:58;100403.72;;;18.76;66.68
62333;BME280;48624;49.812;8.562;2023-07-31T00:55:23;100408.84;;;18.95;66.00
62333;BME280;48624;49.812;8.562;2023-07-31T00:57:49;100409.34;;;18.91;66.18
62333;BME280;48624;49.812;8.562;2023-07-31T01:00:15;100408.50;;;18.90;66.31
62333;BME280;48624;49.812;8.562;2023-07-31T01:02:40;100399.41;;;18.83;66.30
62333;BME280;48624;49.812;8.562;2023-07-31T01:05:06;100404.44;;;18.86;66.44
62333;BME280;48624;49.812;8.562;2023-07-31T01:07:44;100409.72;;;18.96;66.06
62333;BME280;48624;49.812;8.562;2023-07-31T01:10:30;100413.22;;;18.96;65.39
62333;BME280;48624;49.812;8.562;2023-07-31T01:12:59;100407.97;;;18.86;66.28
62333;BME280;48624;49.812;8.562;2023-07-31T01:15:24;100409.38;;;18.99;65.88
62333;BME280;48624;49.812;8.562;2023-07-31T01:17:49;100405.78;;;18.82;66.31
62333;BME280;48624;49.812;8.562;2023-07-31T01:20:19;100401.09;;;18.84;66.20
62333;BME280;48624;49.812;8.562;2023-07-31T01:28:25;100399.50;;;18.99;65.54
62333;BME280;48624;49.812;8.562;2023-07-31T01:30:54;100405.69;;;19.00;65.57
62333;BME280;48624;49.812;8.562;2023-07-31T01:33:20;100401.66;;;18.96;65.89
62333;BME280;48624;49.812;8.562;2023-07-31T01:35:47;100400.13;;;18.93;66.42
62333;BME280;48624;49.812;8.562;2023-07-31T01:38:13;100406.25;;;18.77;67.10
62333;BME280;48624;49.812;8.562;2023-07-31T01:40:41;100405.34;;;18.68;67.30
62333;BME280;48624;49.812;8.562;2023-07-31T01:43:07;100394.72;;;18.85;66.45
62333;BME280;48624;49.812;8.562;2023-07-31T01:45:32;100395.31;;;18.70;67.16
62333;BME280;48624;49.812;8.562;2023-07-31T01:47:58;100393.28;;;18.64;67.64
62333;BME280;48624;49.812;8.562;2023-07-31T01:50:24;100396.09;;;18.63;67.96
62333;BME280;48624;49.812;8.562;2023-07-31T01:52:50;100388.22;;;18.61;68.15
62333;BME280;48624;49.812;8.562;2023-07-31T01:55:15;100380.06;;;18.71;67.35
62333;BME280;48624;49.812;8.562;2023-07-31T01:57:40;100375.97;;;18.58;67.89
62333;BME280;48624;49.812;8.562;2023-07-31T02:00:06;100371.53;;;18.76;67.63
62333;BME280;48624;49.812;8.562;2023-07-31T02:02:32;100366.47;;;18.72;67.89
62333;BME280;48624;49.812;8.562;2023-07-31T02:04:57;100370.22;;;18.53;68.86
62333;BME280;48624;49.812;8.562;2023-07-31T02:07:22;100357.66;;;18.54;68.49
62333;BME280;48624;49.812;8.562;2023-07-31T02:09:48;100363.56;;;18.57;68.51
62333;BME280;48624;49.812;8.562;2023-07-31T02:12:13;100356.25;;;18.41;68.97
62333;BME280;48624;49.812;8.562;2023-07-31T02:14:40;100357.34;;;18.57;67.98
62333;BME280;48624;49.812;8.562;2023-07-31T02:17:05;100357.03;;;18.60;68.04
62333;BME280;48624;49.812;8.562;2023-07-31T02:19:30;100361.44;;;18.43;68.37
62333;BME280;48624;49.812;8.562;2023-07-31T02:21:56;100356.09;;;18.43;68.55
62333;BME280;48624;49.812;8.562;2023-07-31T02:24:21;100348.88;;;18.43;68.66
62333;BME280;48624;49.812;8.562;2023-07-31T02:26:46;100354.47;;;18.24;69.44
62333;BME280;48624;49.812;8.562;2023-07-31T02:29:12;100350.03;;;18.41;68.78
62333;BME280;48624;49.812;8.562;2023-07-31T02:31:37;100342.41;;;18.28;69.47
62333;BME280;48624;49.812;8.562;2023-07-31T02:34:02;100333.28;;;18.39;69.01
62333;BME280;48624;49.812;8.562;2023-07-31T02:36:27;100334.94;;;18.40;68.74
62333;BME280;48624;49.812;8.562;2023-07-31T02:38:53;100334.84;;;18.23;69.55
62333;BME280;48624;49.812;8.562;2023-07-31T02:41:18;100333.28;;;18.12;69.48
62333;BME280;48624;49.812;8.562;2023-07-31T02:43:43;100330.94;;;18.17;69.90
62333;BME280;48624;49.812;8.562;2023-07-31T02:46:09;100338.53;;;18.22;69.28
62333;BME280;48624;49.812;8.562;2023-07-31T02:48:34;100333.28;;;18.12;69.35
62333;BME280;48624;49.812;8.562;2023-07-31T02:50:59;100348.25;;;18.23;69.13
62333;BME280;48624;49.812;8.562;2023-07-31T02:53:25;100334.91;;;18.32;68.63
62333;BME280;48624;49.812;8.562;2023-07-31T02:55:50;100342.63;;;18.35;68.75
62333;BME280;48624;49.812;8.562;2023-07-31T02:58:16;100341.16;;;18.14;69.19
62333;BME280;48624;49.812;8.562;2023-07-31T03:00:44;100349.88;;;18.16;69.53
62333;BME280;48624;49.812;8.562;2023-07-31T03:03:09;100352.94;;;18.21;69.25
62333;BME280;48624;49.812;8.562;2023-07-31T03:05:35;100352.06;;;18.21;69.71
62333;BME280;48624;49.812;8.562;2023-07-31T03:08:00;100347.44;;;18.05;70.32
62333;BME280;48624;49.812;8.562;2023-07-31T03:10:26;100353.41;;;18.16;69.99
62333;BME280;48624;49.812;8.562;2023-07-31T03:12:51;100347.81;;;18.10;70.40
62333;BME280;48624;49.812;8.562;2023-07-31T03:15:17;100354.47;;;18.06;70.89
62333;BME280;48624;49.812;8.562;2023-07-31T03:17:42;100363.44;;;18.14;70.76
62333;BME280;48624;49.812;8.562;2023-07-31T03:20:08;100360.84;;;18.05;71.44
62333;BME280;48624;49.812;8.562;2023-07-31T03:22:34;100355.19;;;18.08;71.22
62333;BME280;48624;49.812;8.562;2023-07-31T03:25:00;100354.03;;;18.10;71.48
62333;BME280;48624;49.812;8.562;2023-07-31T03:27:26;100351.50;;;18.09;72.29
62333;BME280;48624;49.812;8.562;2023-07-31T03:29:51;100355.84;;;17.92;74.73
62333;BME280;48624;49.812;8.562;2023-07-31T03:32:17;100354.09;;;18.00;73.98
62333;BME280;48624;49.812;8.562;2023-07-31T03:34:42;100348.34;;;17.95;74.48
62333;BME280;48624;49.812;8.562;2023-07-31T03:37:07;100342.44;;;17.92;75.16
62333;BME280;48624;49.812;8.562;2023-07-31T03:39:34;100343.63;;;17.71;77.05
62333;BME280;48624;49.812;8.562;2023-07-31T03:42:00;100340.63;;;17.56;78.09
62333;BME280;48624;49.812;8.562;2023-07-31T03:44:25;100341.41;;;17.48;77.84
62333;BME280;48624;49.812;8.562;2023-07-31T03:46:50;100347.00;;;17.55;77.82
62333;BME280;48624;49.812;8.562;2023-07-31T03:49:16;100346.13;;;17.54;78.04
62333;BME280;48624;49.812;8.562;2023-07-31T03:51:41;100348.13;;;17.52;78.33
62333;BME280;48624;49.812;8.562;2023-07-31T03:54:07;100337.06;;;17.47;78.34
62333;BME280;48624;49.812;8.562;2023-07-31T03:56:33;100343.09;;;17.49;78.19
62333;BME280;48624;49.812;8.562;2023-07-31T03:58:58;100347.31;;;17.52;77.41
62333;BME280;48624;49.812;8.562;2023-07-31T04:01:23;100347.53;;;17.58;76.95
62333;BME280;48624;49.812;8.562;2023-07-31T04:03:49;100338.78;;;17.38;77.17
62333;BME280;48624;49.812;8.562;2023-07-31T04:06:14;100344.19;;;17.56;76.59
62333;BME280;48624;49.812;8.562;2023-07-31T04:08:43;100346.00;;;17.56;76.23
62333;BME280;48624;49.812;8.562;2023-07-31T04:11:08;100348.97;;;17.71;75.65
62333;BME280;48624;49.812;8.562;2023-07-31T04:13:34;100346.00;;;17.56;76.08
62333;BME280;48624;49.812;8.562;2023-07-31T04:15:59;100353.34;;;17.72;75.24
62333;BME280;48624;49.812;8.562;2023-07-31T04:18:25;100349.28;;;17.68;75.58
62333;BME280;48624;49.812;8.562;2023-07-31T04:20:51;100349.06;;;17.61;75.36
62333;BME280;48624;49.812;8.562;2023-07-31T04:23:16;100341.56;;;17.83;74.82
62333;BME280;48624;49.812;8.562;2023-07-31T04:25:41;100341.25;;;17.68;75.14
62333;BME280;48624;49.812;8.562;2023-07-31T04:28:07;100342.34;;;17.75;75.12
62333;BME280;48624;49.812;8.562;2023-07-31T04:30:32;100333.75;;;17.71;74.91
62333;BME280;48624;49.812;8.562;2023-07-31T04:32:58;100338.13;;;17.72;74.83
62333;BME280;48624;49.812;8.562;2023-07-31T04:35:23;100335.41;;;17.91;73.68
62333;BME280;48624;49.812;8.562;2023-07-31T04:37:48;100338.88;;;17.83;73.91
62333;BME280;48624;49.812;8.562;2023-07-31T04:40:15;100334.22;;;17.67;73.79
62333;BME280;48624;49.812;8.562;2023-07-31T04:42:40;100340.13;;;17.70;73.71
62333;BME280;48624;49.812;8.562;2023-07-31T04:45:06;100335.41;;;17.91;72.65
62333;BME280;48624;49.812;8.562;2023-07-31T04:47:31;100337.63;;;17.95;72.65
62333;BME280;48624;49.812;8.562;2023-07-31T04:49:56;100323.19;;;17.70;73.53
62333;BME280;48624;49.812;8.562;2023-07-31T04:52:22;100322.78;;;17.83;72.77
62333;BME280;48624;49.812;8.562;2023-07-31T04:54:47;100321.91;;;17.74;72.82
62333;BME280;48624;49.812;8.562;2023-07-31T04:57:12;100321.66;;;17.67;72.61
62333;BME280;48624;49.812;8.562;2023-07-31T04:59:38;100331.97;;;17.80;72.47
62333;BME280;48624;49.812;8.562;2023-07-31T05:02:03;100322.34;;;17.87;71.92
62333;BME280;48624;49.812;8.562;2023-07-31T05:04:29;100325.75;;;17.98;71.56
62333;BME280;48624;49.812;8.562;2023-07-31T05:06:54;100317.13;;;17.86;71.83
62333;BME280;48624;49.812;8.562;2023-07-31T05:09:19;100324.75;;;17.99;71.17
62333;BME280;48624;49.812;8.562;2023-07-31T05:11:45;100310.34;;;18.00;71.21
62333;BME280;48624;49.812;8.562;2023-07-31T05:14:10;100314.50;;;18.12;70.37
62333;BME280;48624;49.812;8.562;2023-07-31T05:16:35;100314.44;;;18.04;70.67
62333;BME280;48624;49.812;8.562;2023-07-31T05:19:01;100311.50;;;17.97;71.79
62333;BME280;48624;49.812;8.562;2023-07-31T05:21:26;100314.97;;;18.08;71.28
62333;BME280;48624;49.812;8.562;2023-07-31T05:23:51;100320.50;;;18.06;71.43
62333;BME280;48624;49.812;8.562;2023-07-31T05:26:17;100314.13;;;18.07;70.70
62333;BME280;48624;49.812;8.562;2023-07-31T05:28:42;100318.81;;;18.05;70.71
62333;BME280;48624;49.812;8.562;2023-07-31T05:31:08;100313.81;;;18.10;70.74
62333;BME280;48624;49.812;8.562;2023-07-31T05:33:33;100323.13;;;18.24;70.75
62333;BME280;48624;49.812;8.562;2023-07-31T05:35:59;100314.88;;;18.17;70.46
62333;BME280;48624;49.812;8.562;2023-07-31T05:38:25;100318.81;;;18.05;70.59
62333;BME280;48624;49.812;8.562;2023-07-31T05:40:51;100318.69;;;18.15;70.68
62333;BME280;48624;49.812;8.562;2023-07-31T05:43:18;100310.88;;;18.22;70.85
62333;BME280;48624;49.812;8.562;2023-07-31T05:45:43;100305.72;;;18.28;69.97
62333;BME280;48624;49.812;8.562;2023-07-31T05:48:08;100300.38;;;18.28;69.65
62333;BME280;48624;49.812;8.562;2023-07-31T05:50:34;100300.31;;;18.20;69.29
62333;BME280;48624;49.812;8.562;2023-07-31T05:52:59;100307.97;;;18.41;69.13
62333;BME280;48624;49.812;8.562;2023-07-31T05:55:25;100306.56;;;18.29;69.24
62333;BME280;48624;49.812;8.562;2023-07-31T05:57:53;100309.84;;;18.49;68.28
62333;BME280;48624;49.812;8.562;2023-07-31T06:00:19;100302.69;;;18.58;68.65
62333;BME280;48624;49.812;8.562;2023-07-31T06:02:45;100303.16;;;18.53;68.26
62333;BME280;48624;49.812;8.562;2023-07-31T06:05:11;100308.66;;;18.43;68.48
62333;BME280;48624;49.812;8.562;2023-07-31T06:07:36;100300.81;;;18.50;68.74
62333;BME280;48624;49.812;8.562;2023-07-31T06:10:02;100303.88;;;18.55;68.81
62333;BME280;48624;49.812;8.562;2023-07-31T06:12:31;100293.13;;;18.55;68.66
62333;BME280;48624;49.812;8.562;2023-07-31T06:14:56;100290.22;;;18.92;67.93
62333;BME280;48624;49.812;8.562;2023-07-31T06:17:22;100299.81;;;18.94;67.85
62333;BME280;48624;49.812;8.562;2023-07-31T06:19:47;100291.41;;;18.89;67.67
62333;BME280;48624;49.812;8.562;2023-07-31T06:22:12;100284.34;;;18.80;67.76
62333;BME280;48624;49.812;8.562;2023-07-31T06:24:38;100285.88;;;18.99;67.63
62333;BME280;48624;49.812;8.562;2023-07-31T06:27:03;100284.88;;;19.00;67.32
62333;BME280;48624;49.812;8.562;2023-07-31T06:29:29;100290.81;;;19.12;67.40
62333;BME280;48624;49.812;8.562;2023-07-31T06:31:55;100280.59;;;19.16;67.23
62333;BME280;48624;49.812;8.562;2023-07-31T06:34:20;100281.44;;;19.24;65.34
62333;BME280;48624;49.812;8.562;2023-07-31T06:36:45;100282.44;;;19.23;65.71
62333;BME280;48624;49.812;8.562;2023-07-31T06:39:11;100296.25;;;19.37;66.09
62333;BME280;48624;49.812;8.562;2023-07-31T06:41:36;100293.56;;;19.37;65.92
62333;BME280;48624;49.812;8.562;2023-07-31T06:44:01;100296.59;;;19.59;65.41
62333;BME280;48624;49.812;8.562;2023-07-31T06:46:26;100289.03;;;19.46;65.96
62333;BME280;48624;49.812;8.562;2023-07-31T06:48:53;100293.88;;;19.34;65.43
62333;BME280;48624;49.812;8.562;2023-07-31T06:51:18;100298.09;;;19.45;65.42
62333;BME280;48624;49.812;8.562;2023-07-31T06:53:43;100294.06;;;19.65;65.35
62333;BME280;48624;49.812;8.562;2023-07-31T06:56:10;100303.47;;;19.61;65.39
62333;BME280;48624;49.812;8.562;2023-07-31T06:58:35;100299.28;;;19.50;65.83
62333;BME280;48624;49.812;8.562;2023-07-31T07:01:01;100300.63;;;19.54;66.09
62333;BME280;48624;49.812;8.562;2023-07-31T07:03:27;100291.88;;;19.61;64.70
62333;BME280;48624;49.812;8.562;2023-07-31T07:05:52;100292.38;;;19.64;65.03
62333;BME280;48624;49.812;8.562;2023-07-31T07:08:17;100289.38;;;20.01;64.64
62333;BME280;48624;49.812;8.562;2023-07-31T07:10:43;100286.97;;;20.14;64.43
62333;BME280;48624;49.812;8.562;2023-07-31T07:13:08;100293.72;;;20.10;64.31
62333;BME280;48624;49.812;8.562;2023-07-31T07:15:33;100281.09;;;20.19;63.81
62333;BME280;48624;49.812;8.562;2023-07-31T07:17:59;100288.00;;;20.13;63.62
62333;BME280;48624;49.812;8.562;2023-07-31T07:20:24;100283.22;;;20.40;63.65
62333;BME280;48624;49.812;8.562;2023-07-31T07:22:49;100283.38;;;20.38;63.12
62333;BME280;48624;49.812;8.562;2023-07-31T07:25:15;100272.50;;;20.32;63.37
62333;BME280;48624;49.812;8.562;2023-07-31T07:27:40;100270.78;;;20.39;63.57
62333;BME280;48624;49.812;8.562;2023-07-31T07:30:06;100269.81;;;20.23;62.93
62333;BME280;48624;49.812;8.562;2023-07-31T07:32:31;100267.75;;;20.34;63.06
62333;BME280;48624;49.812;8.562;2023-07-31T07:34:56;100277.66;;;20.50;62.94
62333;BME280;48624;49.812;8.562;2023-07-31T07:37:22;100276.28;;;20.54;62.60
62333;BME280;48624;49.812;8.562;2023-07-31T07:39:47;100275.50;;;20.45;63.06
62333;BME280;48624;49.812;8.562;2023-07-31T07:42:13;100259.66;;;20.42;63.68
62333;BME280;48624;49.812;8.562;2023-07-31T07:44:38;100264.22;;;20.42;63.07
62333;BME280;48624;49.812;8.562;2023-07-31T07:47:03;100257.94;;;20.58;62.82
62333;BME280;48624;49.812;8.562;2023-07-31T07:49:31;100263.34;;;20.49;63.55
62333;BME280;48624;49.812;8.562;2023-07-31T07:51:56;100254.38;;;20.65;63.44
62333;BME280;48624;49.812;8.562;2023-07-31T07:54:21;100248.75;;;21.15;61.76
62333;BME280;48624;49.812;8.562;2023-07-31T07:56:47;100249.19;;;21.19;62.09
62333;BME280;48624;49.812;8.562;2023-07-31T07:59:12;100251.34;;;21.24;61.90
62333;BME280;48624;49.812;8.562;2023-07-31T08:01:37;100241.88;;;20.73;62.56
62333;BME280;48624;49.812;8.562;2023-07-31T08:04:03;100243.47;;;21.22;61.42
62333;BME280;48624;49.812;8.562;2023-07-31T08:06:28;100246.31;;;21.67;60.39
62333;BME280;48624;49.812;8.562;2023-07-31T08:08:55;100242.38;;;22.08;59.04
62333;BME280;48624;49.812;8.562;2023-07-31T08:11:20;100237.81;;;22.39;58.09
62333;BME280;48624;49.812;8.562;2023-07-31T08:13:47;100240.06;;;22.20;58.84
62333;BME280;48624;49.812;8.562;2023-07-31T08:16:12;100244.03;;;21.94;58.24
62333;BME280;48624;49.812;8.562;2023-07-31T08:18:38;100231.13;;;22.20;57.99
62333;BME280;48624;49.812;8.562;2023-07-31T08:21:05;100229.63;;;22.32;58.40
62333;BME280;48624;49.812;8.562;2023-07-31T08:23:31;100232.41;;;22.24;57.31
62333;BME280;48624;49.812;8.562;2023-07-31T08:25:56;100227.69;;;22.26;58.59
62333;BME280;48624;49.812;8.562;2023-07-31T08:28:21;100225.34;;;21.93;59.43
62333;BME280;48624;49.812;8.562;2023-07-31T08:30:47;100213.25;;;22.18;58.21
62333;BME280;48624;49.812;8.562;2023-07-31T08:33:12;100217.34;;;22.44;57.53
62333;BME280;48624;49.812;8.562;2023-07-31T08:35:37;100211.41;;;22.34;57.37
62333;BME280;48624;49.812;8.562;2023-07-31T08:38:02;100198.72;;;22.35;57.18
62333;BME280;48624;49.812;8.562;2023-07-31T08:40:28;100206.75;;;22.80;56.14
62333;BME280;48624;49.812;8.562;2023-07-31T08:42:55;100209.38;;;22.21;57.31
62333;BME280;48624;49.812;8.562;2023-07-31T08:45:27;100202.38;;;22.27;57.18
62333;BME280;48624;49.812;8.562;2023-07-31T08:47:53;100205.09;;;21.97;58.20
62333;BME280;48624;49.812;8.562;2023-07-31T08:50:19;100195.13;;;22.12;58.48
62333;BME280;48624;49.812;8.562;2023-07-31T08:52:49;100196.22;;;22.03;57.98
62333;BME280;48624;49.812;8.562;2023-07-31T08:55:15;100196.19;;;22.63;56.06
62333;BME280;48624;49.812;8.562;2023-07-31T08:57:41;100202.28;;;22.35;57.54
62333;BME280;48624;49.812;8.562;2023-07-31T09:00:08;100191.97;;;22.76;56.86
62333;BME280;48624;49.812;8.562;2023-07-31T09:05:06;100193.59;;;22.92;54.76
62333;BME280;48624;49.812;8.562;2023-07-31T09:07:34;100203.72;;;22.68;56.93
62333;BME280;48624;49.812;8.562;2023-07-31T09:09:59;100193.50;;;22.48;56.64
62333;BME280;48624;49.812;8.562;2023-07-31T09:12:25;100198.75;;;22.20;56.97
62333;BME280;48624;49.812;8.562;2023-07-31T09:14:51;100202.44;;;22.49;56.79
62333;BME280;48624;49.812;8.562;2023-07-31T09:17:28;100193.34;;;22.50;57.48
62333;BME280;48624;49.812;8.562;2023-07-31T09:19:54;100192.03;;;22.82;55.32
62333;BME280;48624;49.812;8.562;2023-07-31T09:22:31;100186.72;;;23.11;55.47
62333;BME280;48624;49.812;8.562;2023-07-31T09:25:07;100191.16;;;22.97;55.93
62333;BME280;48624;49.812;8.562;2023-07-31T09:27:58;100187.28;;;22.84;56.49
62333;BME280;48624;49.812;8.562;2023-07-31T09:30:24;100191.97;;;22.97;55.45
62333;BME280;48624;49.812;8.562;2023-07-31T09:32:51;100179.59;;;23.53;52.56
62333;BME280;48624;49.812;8.562;2023-07-31T09:35:29;100167.72;;;23.26;53.43
62333;BME280;48624;49.812;8.562;2023-07-31T09:37:59;100172.69;;;23.22;52.63
62333;BME280;48624;49.812;8.562;2023-07-31T09:40:29;100170.81;;;23.45;51.51
62333;BME280;48624;49.812;8.562;2023-07-31T09:43:03;100169.34;;;23.20;51.73
62333;BME280;48624;49.812;8.562;2023-07-31T09:45:29;100162.66;;;22.72;52.16
62333;BME280;48624;49.812;8.562;2023-07-31T09:47:56;100175.97;;;22.96;53.27
62333;BME280;48624;49.812;8.562;2023-07-31T09:50:24;100159.22;;;22.85;54.40
62333;BME280;48624;49.812;8.562;2023-07-31T09:52:50;100174.22;;;22.66;53.83
62333;BME280;48624;49.812;8.562;2023-07-31T09:55:15;100150.94;;;22.65;53.65
62333;BME280;48624;49.812;8.562;2023-07-31T09:57:42;100152.91;;;22.56;54.44
62333;BME280;48624;49.812;8.562;2023-07-31T10:00:15;100145.72;;;22.64;53.71
62333;BME280;48624;49.812;8.562;2023-07-31T10:02:41;100141.28;;;22.56;54.41
62333;BME280;48624;49.812;8.562;2023-07-31T10:05:11;100133.59;;;22.75;54.10
62333;BME280;48624;49.812;8.562;2023-07-31T10:07:38;100126.53;;;22.73;54.62
62333;BME280;48624;49.812;8.562;2023-07-31T10:10:08;100130.50;;;22.78;54.10
62333;BME280;48624;49.812;8.562;2023-07-31T10:12:37;100129.75;;;23.12;53.38
62333;BME280;48624;49.812;8.562;2023-07-31T10:15:03;100122.97;;;23.45;51.26
62333;BME280;48624;49.812;8.562;2023-07-31T10:17:30;100131.72;;;23.47;51.14
62333;BME280;48624;49.812;8.562;2023-07-31T10:19:58;100118.88;;;23.56;51.60
62333;BME280;48624;49.812;8.562;2023-07-31T10:22:27;100108.00;;;23.21;53.00
62333;BME280;48624;49.812;8.562;2023-07-31T10:24:54;100110.34;;;23.24;52.32
62333;BME280;48624;49.812;8.562;2023-07-31T10:27:20;100118.59;;;23.16;52.57
62333;BME280;48624;49.812;8.562;2023-07-31T10:29:46;100115.72;;;23.46;52.72
62333;BME280;48624;49.812;8.562;2023-07-31T10:32:13;100122.94;;;23.74;51.30
62333;BME280;48624;49.812;8.562;2023-07-31T10:34:41;100122.09;;;23.73;52.04
62333;BME280;48624;49.812;8.562;2023-07-31T10:37:27;100118.97;;;23.69;51.01
62333;BME280;48624;49.812;8.562;2023-07-31T10:40:01;100120.47;;;23.79;50.67
62333;BME280;48624;49.812;8.562;2023-07-31T10:42:37;100119.41;;;23.73;50.77
62333;BME280;48624;49.812;8.562;2023-07-31T10:45:08;100134.25;;;23.84;51.34
62333;BME280;48624;49.812;8.562;2023-07-31T10:47:46;100116.03;;;23.64;50.99
62333;BME280;48624;49.812;8.562;2023-07-31T10:50:21;100114.44;;;23.77;50.72
62333;BME280;48624;49.812;8.562;2023-07-31T10:52:52;100119.41;;;24.08;50.35
62333;BME280;48624;49.812;8.562;2023-07-31T10:58:06;100116.06;;;24.06;48.96
62333;BME280;48624;49.812;8.562;2023-07-31T11:00:32;100118.16;;;23.76;51.15
62333;BME280;48624;49.812;8.562;2023-07-31T11:03:08;100114.97;;;23.59;51.23
62333;BME280;48624;49.812;8.562;2023-07-31T11:05:52;100109.50;;;23.94;49.79
62333;BME280;48624;49.812;8.562;2023-07-31T11:08:23;100107.81;;;23.86;50.61
62333;BME280;48624;49.812;8.562;2023-07-31T11:11:09;100111.69;;;23.70;51.30
62333;BME280;48624;49.812;8.562;2023-07-31T11:13:48;100108.06;;;23.56;51.67
62333;BME280;48624;49.812;8.562;2023-07-31T11:16:23;100099.53;;;23.24;53.18
62333;BME280;48624;49.812;8.562;2023-07-31T11:18:49;100109.66;;;23.22;53.05
62333;BME280;48624;49.812;8.562;2023-07-31T11:21:18;100101.56;;;22.93;52.49
62333;BME280;48624;49.812;8.562;2023-07-31T11:23:48;100105.44;;;23.34;54.29
62333;BME280;48624;49.812;8.562;2023-07-31T11:26:15;100099.34;;;23.04;56.04
62333;BME280;48624;49.812;8.562;2023-07-31T11:28:41;100102.09;;;22.82;55.20
62333;BME280;48624;49.812;8.562;2023-07-31T11:31:10;100092.00;;;23.48;53.69
62333;BME280;48624;49.812;8.562;2023-07-31T11:33:36;100107.06;;;23.07;55.54
62333;BME280;48624;49.812;8.562;2023-07-31T11:36:01;100105.19;;;23.29;54.31
62333;BME280;48624;49.812;8.562;2023-07-31T11:38:28;100105.34;;;23.27;55.18
62333;BME280;48624;49.812;8.562;2023-07-31T11:40:56;100104.69;;;23.47;54.55
62333;BME280;48624;49.812;8.562;2023-07-31T11:43:22;100095.97;;;23.52;55.83
62333;BME280;48624;49.812;8.562;2023-07-31T11:45:50;100086.59;;;23.48;55.66
62333;BME280;48624;49.812;8.562;2023-07-31T11:48:26;100083.56;;;23.58;53.39
62333;BME280;48624;49.812;8.562;2023-07-31T11:50:57;100078.09;;;23.93;52.54
62333;BME280;48624;49.812;8.562;2023-07-31T11:56:03;100068.63;;;23.75;53.36
62333;BME280;48624;49.812;8.562;2023-07-31T11:58:31;100064.09;;;23.40;53.74
62333;BME280;48624;49.812;8.562;2023-07-31T12:00:59;100073.22;;;24.23;51.76
62333;BME280;48624;49.812;8.562;2023-07-31T12:03:25;100055.22;;;24.02;51.75
62333;BME280;48624;49.812;8.562;2023-07-31T12:05:53;100064.13;;;24.38;52.00
62333;BME280;48624;49.812;8.562;2023-07-31T12:08:20;100065.78;;;24.52;51.13
62333;BME280;48624;49.812;8.562;2023-07-31T12:10:46;100059.09;;;24.42;51.69
62333;BME280;48624;49.812;8.562;2023-07-31T12:13:24;100051.00;;;24.48;50.68
62333;BME280;48624;49.812;8.562;2023-07-31T12:15:54;100050.16;;;24.34;50.56
62333;BME280;48624;49.812;8.562;2023-07-31T12:18:21;100047.47;;;24.75;49.89
62333;BME280;48624;49.812;8.562;2023-07-31T12:20:48;100036.84;;;24.73;48.52
62333;BME280;48624;49.812;8.562;2023-07-31T12:23:22;100042.03;;;24.48;49.46
62333;BME280;48624;49.812;8.562;2023-07-31T12:28:46;100037.06;;;23.89;50.26
62333;BME280;48624;49.812;8.562;2023-07-31T12:31:15;100028.72;;;23.77;51.34
62333;BME280;48624;49.812;8.562;2023-07-31T12:33:45;100022.78;;;23.53;52.04
62333;BME280;48624;49.812;8.562;2023-07-31T12:36:14;100026.63;;;23.31;52.29
62333;BME280;48624;49.812;8.562;2023-07-31T12:38:41;100021.72;;;23.48;52.61
62333;BME280;48624;49.812;8.562;2023-07-31T12:41:07;100019.00;;;23.41;51.89
62333;BME280;48624;49.812;8.562;2023-07-31T12:43:33;100020.94;;;23.54;51.37
62333;BME280;48624;49.812;8.562;2023-07-31T12:45:59;100013.91;;;23.66;51.99
62333;BME280;48624;49.812;8.562;2023-07-31T12:48:32;100016.41;;;23.68;51.90
62333;BME280;48624;49.812;8.562;2023-07-31T12:50:57;100008.94;;;23.77;51.93
62333;BME280;48624;49.812;8.562;2023-07-31T12:53:22;100006.59;;;23.60;52.92
62333;BME280;48624;49.812;8.562;2023-07-31T12:55:48;100010.88;;;23.90;51.78
62333;BME280;48624;49.812;8.562;2023-07-31T12:58:13;100006.50;;;23.89;52.94
62333;BME280;48624;49.812;8.562;2023-07-31T13:00:38;100000.16;;;24.23;51.73
62333;BME280;48624;49.812;8.562;2023-07-31T13:03:04;99998.28;;;24.31;50.55
62333;BME280;48624;49.812;8.562;2023-07-31T13:05:29;99996.25;;;24.53;49.23